Station: Newman Airport  

  Atmospheric Gas Attenuation - ITU Rec 676-11   ----------------- dB/100km -----------------
Date Time Temp RH % AH g/m3 Dew Point Wind Direction Speed kph Gust kph Barometer mB Rainfall Since 9am 24GHz 47GHz 76GHz 122GHz 134GHz 241GHz
02/09 02:10 18.5 31 4.9 1.1 11 15 1016.7 0 11.6 19.4 24.7 64.0 50.0 169.3
02/09 02:00 18.3 31 4.85 0.9 9 13 1016.6 0 11.5 19.4 24.6 63.7 49.6 167.8
02/09 01:50 18.6 29 4.62 0.2 11 11 1016.6 0 11.0 19.0 23.7 61.5 47.0 158.6
02/09 01:40 19.3 29 4.81 0.8 9 11 1016.8 0 11.4 19.1 24.2 62.7 48.6 164.3
02/09 01:30 19.2 29 4.78 0.8 9 13 1016.8 0 11.3 19.1 24.1 62.5 48.3 163.4
02/09 01:20 19.4 29 4.84 0.9 11 13 1016.8 0 11.4 19.2 24.2 62.8 48.9 165.3
02/09 01:10 19.4 28 4.67 0.4 11 13 1016.9 0 11.1 19.0 23.7 61.4 47.1 158.9
02/09 01:00 19.8 28 4.78 0.8 9 11 1017 0 11.3 19.0 23.9 62.0 48.0 162.3
02/09 00:50 19.8 28 4.78 0.8 9 11 1017.1 0 11.3 19.0 23.9 62.0 48.0 162.3
02/09 00:40 19.8 28 4.78 0.8 9 13 1017.3 0 11.3 19.0 23.9 62.1 48.0 162.3
02/09 00:30 19.5 28 4.7 0.5 9 13 1017.2 0 11.1 19.0 23.8 61.6 47.3 159.9
02/09 00:20 19.8 28 4.78 0.8 9 13 1017.4 0 11.3 19.0 23.9 62.1 48.0 162.3
02/09 00:10 19.7 28 4.75 0.7 11 11 1017.5 0 11.2 19.0 23.9 61.9 47.8 161.4
02/09 00:00 19.7 27 4.58 0.2 9 11 1017.4 0 10.9 18.8 23.3 60.4 46.0 155.1
01/09 23:50 20.1 27 4.69 0.5 9 11 1017.5 0 11.1 18.9 23.6 61.1 46.9 158.4
01/09 23:40 20.3 27 4.75 0.7 11 15 1017.5 0 11.2 18.9 23.7 61.4 47.4 160.3
01/09 23:30 20 28 4.84 1 7 9 1017.4 0 11.4 19.1 24.1 62.4 48.5 164.2
01/09 23:20 20.4 27 4.78 0.8 9 13 1017.5 0 11.3 18.9 23.8 61.6 47.7 161.2
01/09 23:10 20.7 27 4.86 1.1 9 13 1017.5 0 11.4 19.0 23.9 62.1 48.3 163.6
01/09 23:00 20.5 27 4.8 0.9 7 13 1017.5 0 11.3 18.9 23.8 61.7 47.8 161.7
01/09 22:50 20.7 25 4.5 0 0 0 1017.3 0 10.7 18.5 22.8 59.0 44.6 150.4
01/09 22:40 21.4 27 5.06 1.7 7 9 1017.4 0 11.8 19.1 24.4 63.2 50.0 169.5
01/09 22:30 21.3 26 4.85 1 6 7 1017.4 0 11.4 18.8 23.7 61.5 47.9 162.0
01/09 22:20 21.6 25 4.74 0.8 7 7 1017.4 0 11.2 18.6 23.3 60.4 46.6 157.4
01/09 22:10 22.1 25 4.88 1.2 7 11 1017.5 0 11.4 18.7 23.6 61.2 47.7 161.6
01/09 22:00 21.7 25 4.77 0.8 7 9 1017.5 0 11.2 18.6 23.4 60.6 46.8 158.4
01/09 21:50 21.7 25 4.77 0.8 7 7 1017.5 0 11.2 18.6 23.4 60.6 46.8 158.4
01/09 21:40 22 25 4.85 1.1 6 6 1017.5 0 11.4 18.7 23.5 61.0 47.5 160.7
01/09 21:30 22.6 25 5.02 1.6 0 0 1017.6 0 11.7 18.8 23.9 62.0 48.9 165.7
01/09 21:20 23 22 4.52 0.2 0 0 1017.6 0 10.7 18.1 22.3 57.6 43.6 147.1
01/09 21:10 23.6 22 4.68 0.7 4 11 1017.6 0 11.0 18.2 22.6 58.5 44.9 151.7
01/09 21:00 23.8 23 4.95 1.4 9 13 1017.6 0 11.5 18.5 23.4 60.6 47.5 160.9
01/09 20:50 24.2 22 4.84 1.2 7 9 1017.5 0 11.3 18.2 22.9 59.4 46.1 156.2
01/09 20:40 24.3 22 4.87 1.2 9 9 1017.4 0 11.3 18.3 23.0 59.5 46.4 157.1
01/09 20:30 24.9 22 5.04 1.7 9 11 1017.4 0 11.7 18.4 23.3 60.5 47.7 161.9
01/09 20:20 25.1 22 5.09 1.9 11 15 1017.3 0 11.8 18.4 23.4 60.7 48.1 163.3
01/09 20:10 25 21 4.83 1.2 9 11 1017.3 0 11.2 18.1 22.7 58.7 45.6 154.4
01/09 20:00 25.5 20 4.73 0.9 7 9 1017.1 0 11.0 17.9 22.2 57.6 44.3 150.0
01/09 19:50 25.6 21 5 1.7 7 9 1017 0 11.6 18.2 23.0 59.6 46.9 159.1
01/09 19:40 25.9 20 4.84 1.2 9 13 1017 0 11.2 17.9 22.4 58.2 45.2 153.0
01/09 19:30 26.6 20 5.03 1.8 7 9 1016.8 0 11.6 18.0 22.8 59.2 46.7 158.3
01/09 19:20 27.4 19 5 1.8 9 9 1016.7 0 11.5 17.8 22.5 58.4 45.9 155.8
01/09 19:10 27.4 19 5 1.8 7 9 1016.5 0 11.5 17.8 22.5 58.4 45.9 155.7
01/09 19:00 27.1 19 4.92 1.5 7 9 1016.5 0 11.4 17.8 22.3 57.9 45.3 153.6
01/09 18:50 27.5 18 4.76 1.1 7 9 1016.4 0 11.0 17.5 21.8 56.4 43.5 147.4
01/09 18:40 27.3 18 4.71 0.9 7 9 1016.3 0 10.9 17.5 21.7 56.2 43.2 146.1
01/09 18:30 28.2 17 4.67 0.9 7 9 1016.2 0 10.8 17.3 21.3 55.3 42.3 143.2
01/09 18:20 29.2 16 4.65 0.8 6 7 1016.1 0 10.8 17.1 21.0 54.5 41.6 140.9
01/09 18:10 30.4 16 4.96 1.8 6 6 1016 0 11.4 17.2 21.6 56.0 43.9 149.0
01/09 18:00 30.8 15 4.75 1.2 0 6 1016 0 10.9 16.9 20.9 54.2 41.8 141.5
01/09 17:50 31.2 15 4.85 1.5 0 0 1015.9 0 11.1 16.9 21.1 54.7 42.5 144.1
01/09 17:40 31.7 15 4.99 1.9 0 0 1015.9 0 11.4 17.0 21.4 55.4 43.5 147.7
01/09 17:30 32.1 15 5.09 2.2 6 9 1015.8 0 11.6 17.1 21.5 55.9 44.2 150.3
01/09 17:20 32.2 15 5.12 2.3 0 0 1015.8 0 11.6 17.1 21.6 56.0 44.4 151.1
01/09 17:10 32.3 15 5.15 2.4 6 11 1015.8 0 11.7 17.1 21.7 56.2 44.7 151.9
01/09 17:00 32.5 15 5.2 2.5 9 11 1015.8 0 11.8 17.1 21.7 56.4 45.0 153.1
01/09 16:50 32.5 15 5.2 2.5 6 13 1015.7 0 11.8 17.1 21.7 56.4 45.0 153.1
01/09 16:40 32.4 15 5.17 2.5 9 15 1015.7 0 11.7 17.1 21.7 56.3 44.8 152.3
01/09 16:30 32.7 15 5.26 2.7 4 15 1015.7 0 11.9 17.1 21.9 56.7 45.5 154.7
01/09 16:20 32.9 14 4.96 1.9 11 19 1015.7 0 11.3 16.8 21.0 54.4 42.6 144.7
01/09 16:10 33.2 14 5.04 2.1 7 22 1015.6 0 11.4 16.8 21.1 54.8 43.2 146.8
01/09 16:00 32.9 15 5.31 2.9 7 13 1015.7 0 12.0 17.2 21.9 57.0 45.8 155.9
01/09 15:50 32.8 15 5.29 2.8 11 19 1015.7 0 12.0 17.2 21.9 56.9 45.7 155.5
01/09 15:40 33.3 15 5.43 3.2 17 24 1015.7 0 12.2 17.2 22.2 57.6 46.7 159.1
01/09 15:30 33.4 15 5.46 3.3 13 20 1015.5 0 12.3 17.2 22.2 57.7 46.9 159.8
01/09 15:20 32.7 16 5.61 3.6 9 24 1015.7 0 12.6 17.5 22.8 59.3 48.7 166.0
01/09 15:10 32.1 16 5.43 3.1 11 17 1015.7 0 12.3 17.4 22.5 58.4 47.3 161.3
01/09 15:00 32.4 16 5.52 3.4 9 11 1015.8 0 12.4 17.5 22.7 58.9 48.0 163.7
01/09 14:50 32.7 16 5.61 3.6 13 17 1015.9 0 12.6 17.5 22.8 59.4 48.7 166.1
01/09 14:40 32.4 16 5.52 3.4 17 24 1016 0 12.4 17.5 22.7 58.9 48.0 163.7
01/09 14:30 32.5 16 5.55 3.5 20 30 1016 0 12.5 17.5 22.7 59.0 48.2 164.5
01/09 14:20 32.2 16 5.46 3.2 13 20 1016.2 0 12.3 17.5 22.6 58.6 47.6 162.2
01/09 14:10 32.1 17 5.77 4 11 22 1016.3 0 13.0 17.9 23.5 61.0 50.5 172.5
01/09 14:00 31.4 17 5.56 3.4 15 22 1016.5 0 12.5 17.7 23.1 59.9 49.0 167.0
01/09 13:50 31.7 18 5.98 4.5 11 22 1016.6 0 13.4 18.2 24.2 62.9 52.8 180.4
01/09 13:40 32.6 17 5.93 4.4 11 26 1016.7 0 13.3 18.0 23.8 61.9 51.8 176.9
01/09 13:30 31.6 18 5.95 4.4 11 20 1016.8 0 13.3 18.2 24.1 62.8 52.6 179.6
01/09 13:20 31.5 18 5.92 4.3 9 17 1016.9 0 13.3 18.2 24.1 62.6 52.4 178.9
01/09 13:10 31 18 5.76 3.9 11 17 1017.1 0 13.0 18.1 23.8 61.8 51.2 174.6
01/09 13:00 31.4 18 5.89 4.2 9 17 1017.2 0 13.2 18.1 24.0 62.5 52.1 178.1
01/09 12:50 30.9 19 6.05 4.6 9 13 1017.5 0 13.6 18.4 24.6 64.1 54.0 184.6
01/09 12:40 31.1 19 6.11 4.8 9 15 1017.6 0 13.7 18.5 24.8 64.5 54.5 186.2
01/09 12:30 30.5 19 5.92 4.3 7 13 1017.8 0 13.3 18.4 24.4 63.4 53.0 181.1
01/09 12:20 30.2 20 6.13 4.8 11 20 1017.9 0 13.8 18.7 25.1 65.3 55.3 188.9
01/09 12:10 30.2 20 6.13 4.8 9 17 1018.1 0 13.8 18.7 25.1 65.3 55.3 189.0
01/09 12:00 30.7 20 6.3 5.2 9 15 1018.2 0 14.1 18.8 25.4 66.3 56.6 193.7
01/09 11:50 30.2 20 6.13 4.8 9 17 1018.4 0 13.8 18.7 25.1 65.3 55.3 189.0
01/09 11:40 29.9 21 6.34 5.2 13 17 1018.6 0 14.2 19.0 25.8 67.3 57.6 197.0
01/09 11:30 29.4 23 6.75 6.1 11 19 1018.8 0 15.1 19.6 27.2 71.0 62.0 212.6
01/09 11:20 28.9 23 6.57 5.7 7 17 1019.1 0 14.7 19.5 26.8 70.0 60.6 207.5
01/09 11:10 28.7 23 6.5 5.5 11 24 1019.2 0 14.6 19.5 26.7 69.6 60.0 205.5
01/09 11:00 28.6 23 6.46 5.5 11 17 1019.4 0 14.5 19.4 26.6 69.3 59.7 204.4
01/09 10:50 28.8 23 6.54 5.6 15 20 1019.5 0 14.6 19.5 26.8 69.8 60.4 206.8
01/09 10:40 28.2 24 6.6 5.7 11 20 1019.6 0 14.8 19.7 27.2 70.8 61.4 210.4
01/09 10:30 28 25 6.8 6.2 17 24 1019.7 0 15.2 20.0 27.9 72.7 63.6 218.1
01/09 10:20 28 25 6.8 6.2 13 20 1019.8 0 15.2 20.0 27.9 72.7 63.6 218.2
01/09 10:10 27.3 26 6.8 6.1 17 26 1019.9 0 15.2 20.2 28.1 73.3 64.2 220.0
01/09 10:00 27.2 26 6.77 6 13 20 1020 0 15.2 20.2 28.0 73.1 64.0 219.2
01/09 09:50 26.6 27 6.8 6.1 17 22 1020.1 0 15.3 20.3 28.3 73.9 64.7 221.9
01/09 09:40 26.5 28 7.01 6.5 17 24 1020.1 0 15.7 20.6 29.0 75.8 67.0 229.9

Last Refresh: 02-Sep-2026 03:55:34

Bureau of Meteorology